createdAt,value
2022-08-20T00:00:39.981Z,99340.20
2022-08-20T00:03:21.459Z,99345.02
2022-08-20T00:06:05.744Z,99341.70
2022-08-20T00:08:34.141Z,99333.13
2022-08-20T00:11:04.122Z,99331.46
2022-08-20T00:13:36.951Z,99331.42
2022-08-20T00:16:06.745Z,99328.02
2022-08-20T00:18:38.361Z,99324.89
2022-08-20T00:21:11.044Z,99322.86
2022-08-20T00:23:44.171Z,99324.53
2022-08-20T00:26:13.763Z,99328.21
2022-08-20T00:28:42.477Z,99329.24
2022-08-20T00:31:14.085Z,99325.64
2022-08-20T00:33:47.599Z,99322.42
2022-08-20T00:36:30.032Z,99322.98
2022-08-20T00:39:01.813Z,99330.42
2022-08-20T00:41:31.138Z,99328.22
2022-08-20T00:44:22.124Z,99333.25
2022-08-20T00:46:59.126Z,99327.93
2022-08-20T00:49:30.789Z,99332.67
2022-08-20T00:52:11.627Z,99335.44
2022-08-20T00:54:47.098Z,99336.97
2022-08-20T00:57:44.506Z,99340.58
2022-08-20T01:00:26.987Z,99344.13
2022-08-20T01:02:57.153Z,99346.77
2022-08-20T01:05:29.494Z,99351.12
2022-08-20T01:07:58.855Z,99353.45
2022-08-20T01:10:35.027Z,99354.65
2022-08-20T01:13:11.206Z,99352.61
2022-08-20T01:15:43.380Z,99358.23
2022-08-20T01:18:18.558Z,99363.48
2022-08-20T01:20:51.803Z,99365.45
2022-08-20T01:23:45.887Z,99366.89
2022-08-20T01:26:45.573Z,99371.06
2022-08-20T01:29:18.693Z,99375.50
2022-08-20T01:31:46.843Z,99377.92
2022-08-20T01:34:19.229Z,99382.52
2022-08-20T01:36:51.333Z,99380.66
2022-08-20T01:39:24.364Z,99375.53
2022-08-20T01:42:19.584Z,99369.23
2022-08-20T01:44:48.287Z,99368.98
2022-08-20T01:47:22.080Z,99361.98
2022-08-20T01:49:55.565Z,99364.95
2022-08-20T01:53:02.349Z,99364.15
2022-08-20T01:55:31.945Z,99365.83
2022-08-20T01:58:01.408Z,99367.40
2022-08-20T02:00:30.025Z,99366.97
2022-08-20T02:03:00.318Z,99359.96
2022-08-20T02:05:30.581Z,99360.73
2022-08-20T02:08:00.362Z,99360.14
2022-08-20T02:10:31.651Z,99357.30
2022-08-20T02:13:01.976Z,99350.55
2022-08-20T02:15:35.238Z,99346.39
2022-08-20T02:18:10.775Z,99340.02
2022-08-20T02:20:40.748Z,99334.34
2022-08-20T02:23:10.515Z,99335.09
2022-08-20T02:25:40.579Z,99340.31
2022-08-20T02:28:12.167Z,99343.06
2022-08-20T02:30:47.130Z,99338.64
2022-08-20T02:33:19.722Z,99338.11
2022-08-20T02:35:55.614Z,99338.33
2022-08-20T02:38:24.697Z,99337.04
2022-08-20T02:40:54.859Z,99332.11
2022-08-20T02:43:23.933Z,99326.34
2022-08-20T02:45:55.872Z,99321.30
2022-08-20T02:48:24.064Z,99319.35
2022-08-20T02:51:00.135Z,99315.98
2022-08-20T02:53:31.136Z,99318.74
2022-08-20T02:56:00.581Z,99321.63
2022-08-20T02:58:29.522Z,99319.67
2022-08-20T03:01:00.120Z,99322.20
2022-08-20T03:03:28.735Z,99320.80
2022-08-20T03:05:59.035Z,99316.63
2022-08-20T03:08:29.546Z,99309.22
2022-08-20T03:11:00.679Z,99300.68
2022-08-20T03:13:31.758Z,99297.83
2022-08-20T03:16:13.199Z,99295.98
2022-08-20T03:18:53.628Z,99300.55
2022-08-20T03:21:32.389Z,99297.73
2022-08-20T03:24:03.743Z,99290.60
2022-08-20T03:26:37.911Z,99297.44
2022-08-20T03:29:06.631Z,99304.29
2022-08-20T03:31:37.786Z,99313.52
2022-08-20T03:34:08.367Z,99318.47
2022-08-20T03:36:36.947Z,99306.89
2022-08-20T03:39:07.734Z,99305.51
2022-08-20T03:41:35.749Z,99303.94
2022-08-20T03:44:04.775Z,99301.59
2022-08-20T03:46:34.806Z,99300.84
2022-08-20T03:49:03.885Z,99307.49
2022-08-20T03:51:45.981Z,99310.42
2022-08-20T03:54:23.559Z,99302.79
2022-08-20T03:56:51.985Z,99301.17
2022-08-20T03:59:20.042Z,99303.78
2022-08-20T04:01:48.851Z,99297.67
2022-08-20T04:04:37.377Z,99296.48
2022-08-20T04:07:19.871Z,99290.49
2022-08-20T04:09:48.423Z,99291.67
2022-08-20T04:12:16.607Z,99291.78
2022-08-20T04:15:07.245Z,99291.18
2022-08-20T04:17:42.397Z,99289.42
2022-08-20T04:20:18.569Z,99287.87
2022-08-20T04:22:50.804Z,99280.98
2022-08-20T04:25:36.742Z,99281.88
2022-08-20T04:28:14.774Z,99283.35
2022-08-20T04:30:52.965Z,99286.55
2022-08-20T04:33:33.530Z,99289.20
2022-08-20T04:36:06.310Z,99292.23
2022-08-20T04:38:47.872Z,99298.07
2022-08-20T04:41:22.581Z,99302.75
2022-08-20T04:43:54.514Z,99301.36
2022-08-20T04:46:32.821Z,99305.23
2022-08-20T04:49:03.545Z,99307.49
2022-08-20T04:51:32.409Z,99313.03
2022-08-20T04:54:01.555Z,99316.05
2022-08-20T04:56:39.877Z,99322.25
2022-08-20T04:59:08.411Z,99325.83
2022-08-20T05:01:36.660Z,99332.77
2022-08-20T05:04:05.270Z,99334.45
2022-08-20T05:06:38.205Z,99332.29
2022-08-20T05:09:07.181Z,99335.39
2022-08-20T05:11:43.364Z,99338.59
2022-08-20T05:14:12.411Z,99340.52
2022-08-20T05:16:41.060Z,99338.40
2022-08-20T05:19:49.581Z,99336.67
2022-08-20T05:22:18.666Z,99343.23
2022-08-20T05:24:54.042Z,99349.23
2022-08-20T05:27:24.730Z,99349.67
2022-08-20T05:29:56.050Z,99351.61
2022-08-20T05:32:24.533Z,99351.48
2022-08-20T05:34:53.071Z,99355.55
2022-08-20T05:37:21.455Z,99354.20
2022-08-20T05:39:49.825Z,99353.44
2022-08-20T05:42:20.921Z,99352.63
2022-08-20T05:44:50.151Z,99353.76
2022-08-20T05:47:18.603Z,99350.25
2022-08-20T05:49:47.128Z,99339.78
2022-08-20T05:52:15.229Z,99342.86
2022-08-20T05:55:24.762Z,99348.76
2022-08-20T05:58:06.257Z,99355.86
2022-08-20T06:00:35.707Z,99360.80
2022-08-20T06:03:22.357Z,99365.91
2022-08-20T06:05:53.205Z,99368.40
2022-08-20T06:08:21.279Z,99374.41
2022-08-20T06:11:37.005Z,99377.35
2022-08-20T06:14:06.222Z,99371.66
2022-08-20T06:16:57.437Z,99370.04
2022-08-20T06:19:36.104Z,99368.74
2022-08-20T06:22:17.697Z,99373.08
2022-08-20T06:24:55.708Z,99369.31
2022-08-20T06:27:26.580Z,99370.15
2022-08-20T06:29:55.276Z,99371.26
2022-08-20T06:32:32.275Z,99372.63
2022-08-20T06:35:04.027Z,99373.38
2022-08-20T06:37:55.646Z,99367.95
2022-08-20T06:40:28.944Z,99364.43
2022-08-20T06:43:03.089Z,99371.28
2022-08-20T06:45:33.471Z,99377.25
2022-08-20T06:48:07.057Z,99375.36
2022-08-20T06:50:47.467Z,99377.14
2022-08-20T06:53:21.376Z,99380.89
2022-08-20T06:55:55.448Z,99374.35
2022-08-20T06:58:36.976Z,99376.44
2022-08-20T07:01:12.604Z,99371.98
2022-08-20T07:03:55.331Z,99373.38
2022-08-20T07:06:27.986Z,99372.82
2022-08-20T07:09:30.200Z,99365.84
2022-08-20T07:11:58.730Z,99360.19
2022-08-20T07:14:30.068Z,99359.96
2022-08-20T07:17:11.330Z,99361.98
2022-08-20T07:19:41.069Z,99365.10
2022-08-20T07:22:09.855Z,99367.81
2022-08-20T07:24:48.904Z,99365.66
2022-08-20T07:27:23.175Z,99361.41
2022-08-20T07:30:15.039Z,99358.95
2022-08-20T07:32:45.761Z,99356.53
2022-08-20T07:35:44.112Z,99357.36
2022-08-20T07:38:25.063Z,99358.55
2022-08-20T07:41:02.962Z,99364.86
2022-08-20T07:43:34.794Z,99365.92
2022-08-20T07:46:14.258Z,99367.84
2022-08-20T07:48:50.335Z,99370.14
2022-08-20T07:51:29.749Z,99370.92
2022-08-20T07:54:08.481Z,99371.58
2022-08-20T07:56:45.789Z,99373.98
2022-08-20T07:59:21.606Z,99382.41
2022-08-20T08:01:49.833Z,99382.39
2022-08-20T08:04:18.728Z,99384.98
2022-08-20T08:06:51.355Z,99385.16
2022-08-20T08:09:23.144Z,99389.09
2022-08-20T08:11:58.485Z,99387.16
2022-08-20T08:14:34.452Z,99388.98
2022-08-20T08:17:04.969Z,99396.18
2022-08-20T08:19:38.996Z,99399.79
2022-08-20T08:22:42.599Z,99398.01
2022-08-20T08:25:13.463Z,99394.95
2022-08-20T08:27:48.937Z,99396.70
2022-08-20T08:31:06.203Z,99399.00
2022-08-20T08:33:34.815Z,99398.07
2022-08-20T08:36:14.094Z,99398.38
2022-08-20T08:38:44.981Z,99395.69
2022-08-20T08:41:25.886Z,99392.83
2022-08-20T08:44:25.686Z,99392.38
2022-08-20T08:46:58.783Z,99389.18
2022-08-20T08:49:37.659Z,99394.37
2022-08-20T08:52:16.302Z,99391.62
2022-08-20T08:54:51.922Z,99394.70
2022-08-20T08:57:20.773Z,99397.89
2022-08-20T09:00:04.848Z,99398.21
2022-08-20T09:02:38.468Z,99399.77
2022-08-20T09:05:41.407Z,99399.16
2022-08-20T09:08:19.418Z,99398.81
2022-08-20T09:10:50.758Z,99398.33
2022-08-20T09:13:19.613Z,99403.55
2022-08-20T09:15:51.213Z,99406.81
2022-08-20T09:18:20.509Z,99404.46
2022-08-20T09:20:49.316Z,99414.20
2022-08-20T09:23:17.571Z,99411.47
2022-08-20T09:25:45.973Z,99411.32
2022-08-20T09:28:14.972Z,99416.39
2022-08-20T09:30:46.634Z,99413.83
2022-08-20T09:33:18.411Z,99418.05
2022-08-20T09:35:50.485Z,99420.11
2022-08-20T09:38:22.773Z,99419.66
2022-08-20T09:40:56.760Z,99416.95
2022-08-20T09:43:25.406Z,99421.93
2022-08-20T09:45:55.744Z,99422.19
2022-08-20T09:48:31.935Z,99421.06
2022-08-20T09:51:03.936Z,99420.04
2022-08-20T09:53:42.853Z,99421.89
2022-08-20T09:56:13.977Z,99419.43
2022-08-20T09:58:47.970Z,99417.67
2022-08-20T10:01:19.437Z,99415.05
2022-08-20T10:03:49.281Z,99407.52
2022-08-20T10:06:22.287Z,99405.27
2022-08-20T10:08:53.833Z,99402.35
2022-08-20T10:11:22.073Z,99401.12
2022-08-20T10:13:50.504Z,99399.82
2022-08-20T10:16:19.101Z,99398.66
2022-08-20T10:18:49.725Z,99391.40
2022-08-20T10:21:38.426Z,99392.14
2022-08-20T10:24:10.073Z,99396.88
2022-08-20T10:26:41.904Z,99399.85
2022-08-20T10:29:10.692Z,99402.95
2022-08-20T10:31:40.469Z,99407.56
2022-08-20T10:34:09.142Z,99412.66
2022-08-20T10:36:37.421Z,99417.72
2022-08-20T10:39:11.876Z,99414.01
2022-08-20T10:42:23.627Z,99415.94
2022-08-20T10:45:16.343Z,99414.29
2022-08-20T10:48:20.831Z,99415.17
2022-08-20T10:51:02.166Z,99410.11
2022-08-20T10:53:41.648Z,99412.25
2022-08-20T10:56:19.795Z,99411.55
2022-08-20T10:58:50.970Z,99410.91
2022-08-20T11:01:37.655Z,99410.39
2022-08-20T11:04:08.803Z,99419.70
2022-08-20T11:06:40.350Z,99413.42
2022-08-20T11:09:37.997Z,99418.35
2022-08-20T11:12:28.692Z,99415.94
2022-08-20T11:15:00.334Z,99411.14
2022-08-20T11:17:33.470Z,99412.64
2022-08-20T11:20:08.261Z,99418.95
2022-08-20T11:22:46.532Z,99423.75
2022-08-20T11:25:21.134Z,99424.75
2022-08-20T11:27:51.698Z,99423.98
2022-08-20T11:30:25.223Z,99428.27
2022-08-20T11:32:58.543Z,99427.60
2022-08-20T11:35:49.523Z,99429.96
2022-08-20T11:38:25.776Z,99428.69
2022-08-20T11:40:54.371Z,99427.73
2022-08-20T11:43:33.393Z,99426.52
2022-08-20T11:46:48.481Z,99417.13
2022-08-20T11:49:20.362Z,99414.29
2022-08-20T11:52:34.271Z,99414.84
2022-08-20T11:55:06.361Z,99410.77
2022-08-20T11:57:37.909Z,99411.80
2022-08-20T12:00:33.027Z,99406.98
2022-08-20T12:03:17.529Z,99410.70
2022-08-20T12:05:49.415Z,99419.02
2022-08-20T12:08:45.249Z,99420.92
2022-08-20T12:11:27.823Z,99418.56
2022-08-20T12:14:30.414Z,99418.45
2022-08-20T12:20:57.046Z,99417.64
2022-08-20T12:24:57.545Z,99412.84
2022-08-20T13:40:26.881Z,99421.27
2022-08-20T14:07:19.312Z,99412.11
2022-08-20T14:10:48.752Z,99406.00
2022-08-20T14:18:05.992Z,99411.83
2022-08-20T14:26:19.746Z,99434.04
2022-08-20T14:33:20.712Z,99457.66
2022-08-20T14:37:19.449Z,99469.31
2022-08-20T14:41:02.443Z,99469.27
2022-08-20T15:03:48.331Z,99475.61
2022-08-20T15:07:46.780Z,99473.02
2022-08-20T15:15:56.052Z,99464.26
2022-08-20T15:20:25.267Z,99456.66
2022-08-20T15:23:59.613Z,99458.92
2022-08-20T15:26:40.906Z,99462.40
2022-08-20T15:30:00.782Z,99466.79
2022-08-20T15:33:09.340Z,99466.80
2022-08-20T15:36:00.403Z,99468.64
2022-08-20T15:38:46.778Z,99474.45
2022-08-20T15:41:22.995Z,99471.61
2022-08-20T15:44:24.825Z,99473.91
2022-08-20T15:48:30.407Z,99477.64
2022-08-20T15:51:35.565Z,99480.14
2022-08-20T15:54:16.305Z,99480.83
2022-08-20T15:57:49.548Z,99479.65
2022-08-20T16:00:46.645Z,99486.55
2022-08-20T16:04:30.952Z,99489.36
2022-08-20T16:07:47.737Z,99499.91
2022-08-20T16:11:06.798Z,99502.67
2022-08-20T16:13:54.581Z,99505.98
2022-08-20T16:17:05.003Z,99506.67
2022-08-20T16:20:14.617Z,99503.27
2022-08-20T16:22:53.258Z,99506.27
2022-08-20T16:26:09.257Z,99505.73
2022-08-20T16:29:14.305Z,99502.39
2022-08-20T16:31:54.268Z,99501.23
2022-08-20T16:35:05.784Z,99502.11
2022-08-20T16:38:12.549Z,99501.91
2022-08-20T16:41:43.962Z,99506.05
2022-08-20T16:44:48.084Z,99512.86
2022-08-20T16:48:03.683Z,99516.46
2022-08-20T16:51:22.997Z,99522.77
2022-08-20T16:54:29.737Z,99522.67
2022-08-20T16:57:45.467Z,99528.09
2022-08-20T17:00:58.379Z,99529.22
2022-08-20T17:04:36.306Z,99528.06
2022-08-20T17:07:33.362Z,99532.60
2022-08-20T17:10:23.215Z,99534.77
2022-08-20T17:13:00.870Z,99542.65
2022-08-20T17:16:18.038Z,99539.70
2022-08-20T17:20:03.711Z,99540.06
2022-08-20T17:23:56.686Z,99539.88
2022-08-20T17:27:00.337Z,99539.30
2022-08-20T17:29:53.420Z,99539.86
2022-08-20T17:32:58.071Z,99538.12
2022-08-20T17:36:17.066Z,99539.88
2022-08-20T17:39:48.811Z,99540.83
2022-08-20T17:43:00.905Z,99548.08
2022-08-20T17:46:35.879Z,99547.22
2022-08-20T17:50:34.517Z,99554.41
2022-08-20T17:53:48.662Z,99565.17
2022-08-20T17:56:32.984Z,99566.89
2022-08-20T18:00:00.080Z,99575.14
2022-08-20T18:02:47.209Z,99582.14
2022-08-20T18:05:35.953Z,99586.67
2022-08-20T18:08:30.920Z,99588.04
2022-08-20T18:11:27.188Z,99585.73
2022-08-20T18:14:23.688Z,99588.80
2022-08-20T18:18:52.923Z,99590.95
2022-08-20T18:21:49.554Z,99595.02
2022-08-20T18:29:14.117Z,99599.13
2022-08-20T18:32:14.356Z,99599.54
2022-08-20T18:35:24.111Z,99596.70
2022-08-20T18:38:23.521Z,99598.34
2022-08-20T18:41:36.027Z,99596.31
2022-08-20T18:44:37.619Z,99599.72
2022-08-20T18:48:05.416Z,99600.02
2022-08-20T18:51:09.782Z,99604.14
2022-08-20T18:53:58.005Z,99608.64
2022-08-20T18:56:58.741Z,99611.80
2022-08-20T18:59:46.678Z,99613.82
2022-08-20T19:02:53.256Z,99612.18
2022-08-20T19:06:31.829Z,99614.75
2022-08-20T19:09:32.084Z,99608.36
2022-08-20T19:12:37.329Z,99604.48
2022-08-20T19:15:23.454Z,99604.02
2022-08-20T19:18:29.751Z,99610.42
2022-08-20T19:21:03.465Z,99610.14
2022-08-20T19:24:34.772Z,99612.23
2022-08-20T19:28:01.098Z,99613.98
2022-08-20T19:31:09.995Z,99615.44
2022-08-20T19:34:37.918Z,99612.91
2022-08-20T19:37:51.235Z,99609.58
2022-08-20T19:40:51.635Z,99610.36
2022-08-20T19:44:16.718Z,99609.95
2022-08-20T19:47:20.141Z,99608.73
2022-08-20T19:50:43.238Z,99605.83
2022-08-20T19:53:44.909Z,99604.30
2022-08-20T19:56:38.268Z,99605.39
2022-08-20T19:59:58.642Z,99604.38
2022-08-20T20:02:53.083Z,99603.85
2022-08-20T20:05:25.391Z,99604.54
2022-08-20T20:08:11.723Z,99607.35
2022-08-20T20:10:41.953Z,99611.75
2022-08-20T20:13:45.509Z,99614.83
2022-08-20T20:17:04.169Z,99609.74
2022-08-20T20:20:38.263Z,99613.81
2022-08-20T20:24:11.544Z,99614.67
2022-08-20T20:27:08.900Z,99615.98
2022-08-20T20:29:57.502Z,99615.52
2022-08-20T20:32:48.989Z,99613.92
2022-08-20T20:35:38.905Z,99617.84
2022-08-20T20:39:38.989Z,99617.16
2022-08-20T20:45:58.466Z,99615.27
2022-08-20T20:49:45.510Z,99616.05
2022-08-20T20:56:02.552Z,99611.39
2022-08-20T20:59:06.264Z,99609.60
2022-08-20T21:02:27.665Z,99608.45
2022-08-20T21:05:19.075Z,99606.84
2022-08-20T21:08:41.589Z,99612.07
2022-08-20T21:11:50.928Z,99605.31
2022-08-20T21:14:24.399Z,99608.44
2022-08-20T21:17:08.988Z,99602.69
2022-08-20T21:19:44.877Z,99601.66
2022-08-20T21:22:33.956Z,99602.48
2022-08-20T21:25:05.705Z,99602.80
2022-08-20T21:27:35.840Z,99603.95
2022-08-20T21:30:27.760Z,99605.16
2022-08-20T21:33:04.759Z,99607.60
2022-08-20T21:35:34.300Z,99614.37
2022-08-20T21:38:10.408Z,99614.92
2022-08-20T21:40:47.704Z,99615.92
2022-08-20T21:44:06.841Z,99614.86
2022-08-20T21:46:56.591Z,99616.40
2022-08-20T21:49:31.427Z,99619.89
2022-08-20T21:52:02.388Z,99620.95
2022-08-20T21:54:29.762Z,99627.05
2022-08-20T21:57:38.006Z,99633.55
2022-08-20T22:00:46.288Z,99634.82
2022-08-20T22:03:22.627Z,99631.50
2022-08-20T22:06:07.176Z,99624.84
2022-08-20T22:08:47.653Z,99626.60
2022-08-20T22:11:39.101Z,99631.10
2022-08-20T22:14:23.681Z,99632.98
2022-08-20T22:16:54.481Z,99630.23
2022-08-20T22:19:21.871Z,99627.73
2022-08-20T22:21:49.260Z,99626.05
2022-08-20T22:24:16.499Z,99623.95
2022-08-20T22:26:56.719Z,99620.15
2022-08-20T22:29:48.576Z,99616.77
2022-08-20T22:32:54.504Z,99609.09
2022-08-20T22:35:33.301Z,99605.36
2022-08-20T22:38:13.185Z,99599.60
2022-08-20T22:40:41.802Z,99594.98
2022-08-20T22:43:32.983Z,99591.05
2022-08-20T22:46:36.431Z,99586.77
2022-08-20T22:49:31.067Z,99581.89
2022-08-20T22:52:08.200Z,99583.05
2022-08-20T22:54:36.664Z,99583.27
2022-08-20T22:57:12.713Z,99588.84
2022-08-20T22:59:53.435Z,99594.06
2022-08-20T23:02:22.232Z,99597.77
2022-08-20T23:05:01.816Z,99596.59
2022-08-20T23:07:36.265Z,99600.50
2022-08-20T23:10:04.807Z,99605.41
2022-08-20T23:12:40.690Z,99599.42
2022-08-20T23:15:08.388Z,99597.21
2022-08-20T23:17:38.453Z,99596.76
2022-08-20T23:20:19.494Z,99595.70
2022-08-20T23:22:55.277Z,99594.71
2022-08-20T23:25:25.060Z,99588.00
2022-08-20T23:27:56.688Z,99589.61
2022-08-20T23:30:31.480Z,99591.40
2022-08-20T23:33:01.600Z,99592.73
2022-08-20T23:35:33.398Z,99593.83
2022-08-20T23:38:07.014Z,99595.89
2022-08-20T23:40:34.538Z,99599.15
2022-08-20T23:43:04.247Z,99600.02
2022-08-20T23:45:43.545Z,99602.70
2022-08-20T23:48:27.876Z,99600.30
2022-08-20T23:51:01.324Z,99598.71
2022-08-20T23:53:31.517Z,99590.43
2022-08-20T23:56:01.412Z,99589.57
2022-08-20T23:58:29.552Z,99592.65
